createdAt,value
2018-09-18T00:01:59.976Z,3.20
2018-09-18T00:04:27.883Z,3.50
2018-09-18T00:06:55.791Z,3.90
2018-09-18T00:09:23.720Z,3.70
2018-09-18T00:11:51.691Z,3.60
2018-09-18T00:14:19.668Z,3.60
2018-09-18T00:16:47.944Z,2.90
2018-09-18T00:19:15.859Z,3.23
2018-09-18T00:21:43.772Z,3.90
2018-09-18T00:24:11.748Z,2.87
2018-09-18T00:26:39.711Z,3.70
2018-09-18T00:29:07.631Z,3.10
2018-09-18T00:31:36.482Z,4.33
2018-09-18T00:34:04.404Z,3.77
2018-09-18T00:36:32.411Z,3.43
2018-09-18T00:39:00.387Z,3.47
2018-09-18T00:41:28.347Z,3.70
2018-09-18T00:43:56.263Z,4.17
2018-09-18T00:46:24.187Z,3.63
2018-09-18T00:48:52.159Z,4.10
2018-09-18T00:51:20.203Z,4.10
2018-09-18T00:53:48.097Z,3.50
2018-09-18T00:56:16.073Z,3.30
2018-09-18T00:58:43.983Z,3.63
2018-09-18T01:01:11.903Z,3.60
2018-09-18T01:03:39.871Z,3.73
2018-09-18T01:06:07.832Z,3.80
2018-09-18T01:08:35.737Z,4.40
2018-09-18T01:11:03.680Z,3.60
2018-09-18T01:13:31.652Z,3.93
2018-09-18T01:15:59.691Z,4.33
2018-09-18T01:18:31.975Z,4.20
2018-09-18T01:20:59.892Z,4.27
2018-09-18T01:23:27.796Z,4.43
2018-09-18T01:25:55.795Z,3.47
2018-09-18T01:28:23.767Z,4.00
2018-09-18T01:30:51.744Z,3.70
2018-09-18T01:33:19.687Z,4.13
2018-09-18T01:35:47.605Z,3.77
2018-09-18T01:38:15.544Z,3.80
2018-09-18T01:40:43.463Z,3.90
2018-09-18T01:43:11.383Z,4.07
2018-09-18T01:45:39.353Z,3.63
2018-09-18T01:48:07.331Z,4.30
2018-09-18T01:50:35.332Z,4.00
2018-09-18T01:53:03.288Z,3.70
2018-09-18T01:55:31.302Z,4.40
2018-09-18T01:57:59.323Z,4.30
2018-09-18T02:00:27.237Z,4.10
2018-09-18T02:02:55.236Z,3.80
2018-09-18T02:05:23.284Z,4.00
2018-09-18T02:07:51.253Z,4.17
2018-09-18T02:10:19.151Z,4.40
2018-09-18T02:12:47.192Z,4.57
2018-09-18T02:15:15.095Z,4.00
2018-09-18T02:17:43.067Z,3.87
2018-09-18T02:20:10.990Z,4.17
2018-09-18T02:22:38.903Z,3.87
2018-09-18T02:25:06.812Z,3.87
2018-09-18T02:27:34.835Z,4.73
2018-09-18T02:30:02.775Z,4.60
2018-09-18T02:32:30.745Z,4.23
2018-09-18T02:34:59.563Z,4.23
2018-09-18T02:37:27.470Z,4.77
2018-09-18T02:39:55.404Z,4.63
2018-09-18T02:42:23.315Z,3.93
2018-09-18T02:44:51.580Z,5.00
2018-09-18T02:47:19.515Z,5.00
2018-09-18T02:49:48.028Z,5.93
2018-09-18T02:52:15.982Z,4.23
2018-09-18T02:54:43.937Z,4.70
2018-09-18T02:57:11.898Z,4.67
2018-09-18T02:59:39.900Z,5.00
2018-09-18T03:02:07.841Z,4.60
2018-09-18T03:04:35.739Z,4.67
2018-09-18T03:07:03.660Z,4.97
2018-09-18T03:09:31.648Z,4.50
2018-09-18T03:11:59.624Z,4.50
2018-09-18T03:14:27.591Z,5.17
2018-09-18T03:16:55.659Z,5.10
2018-09-18T03:19:23.563Z,4.83
2018-09-18T03:21:51.501Z,5.10
2018-09-18T03:24:19.403Z,5.70
2018-09-18T03:26:47.336Z,5.20
2018-09-18T03:29:15.248Z,5.67
2018-09-18T03:31:43.180Z,4.73
2018-09-18T03:34:11.096Z,5.10
2018-09-18T03:36:39.015Z,5.13
2018-09-18T03:39:07.665Z,5.40
2018-09-18T03:41:35.665Z,5.20
2018-09-18T03:44:03.716Z,5.80
2018-09-18T03:46:31.939Z,5.40
2018-09-18T03:48:59.888Z,5.73
2018-09-18T03:51:27.815Z,5.70
2018-09-18T03:53:55.893Z,5.67
2018-09-18T03:56:23.869Z,5.50
2018-09-18T03:58:51.776Z,5.20
2018-09-18T04:01:19.759Z,5.60
2018-09-18T04:03:47.700Z,5.67
2018-09-18T04:06:15.712Z,5.67
2018-09-18T04:08:43.644Z,5.27
2018-09-18T04:11:11.599Z,5.10
2018-09-18T04:13:39.597Z,5.70
2018-09-18T04:16:07.552Z,4.93
2018-09-18T04:18:35.556Z,5.43
2018-09-18T04:21:03.489Z,5.63
2018-09-18T04:23:31.400Z,5.70
2018-09-18T04:25:59.447Z,5.17
2018-09-18T04:28:27.401Z,5.20
2018-09-18T04:30:55.381Z,5.57
2018-09-18T04:33:23.343Z,5.63
2018-09-18T04:35:51.480Z,6.10
2018-09-18T04:38:19.480Z,5.30
2018-09-18T04:40:47.408Z,5.40
2018-09-18T04:43:15.388Z,5.37
2018-09-18T04:45:43.299Z,5.80
2018-09-18T04:48:11.256Z,6.03
2018-09-18T04:50:39.244Z,6.07
2018-09-18T04:53:07.163Z,6.53
2018-09-18T04:55:35.100Z,5.90
2018-09-18T04:58:03.024Z,6.60
2018-09-18T05:00:30.923Z,6.37
2018-09-18T05:02:58.921Z,6.40
2018-09-18T05:05:26.825Z,6.30
2018-09-18T05:07:54.882Z,6.80
2018-09-18T05:10:22.879Z,6.57
2018-09-18T05:12:50.871Z,6.47
2018-09-18T05:15:19.170Z,6.40
2018-09-18T05:17:47.083Z,6.50
2018-09-18T05:20:15.043Z,6.10
2018-09-18T05:22:43.086Z,5.67
2018-09-18T05:25:11.076Z,6.77
2018-09-18T05:27:39.046Z,6.60
2018-09-18T05:30:06.952Z,6.47
2018-09-18T05:32:35.045Z,6.30
2018-09-18T05:35:03.058Z,6.90
2018-09-18T05:37:31.027Z,6.07
2018-09-18T05:39:58.997Z,6.27
2018-09-18T05:42:26.875Z,6.77
2018-09-18T05:44:54.823Z,6.90
2018-09-18T05:47:22.740Z,6.83
2018-09-18T05:49:50.717Z,6.07
2018-09-18T05:52:18.679Z,5.97
2018-09-18T05:54:46.600Z,6.63
2018-09-18T05:57:14.615Z,6.30
2018-09-18T05:59:42.528Z,6.37
2018-09-18T06:02:10.574Z,6.77
2018-09-18T06:04:38.470Z,7.07
2018-09-18T06:07:06.499Z,7.30
2018-09-18T06:09:34.462Z,6.17
2018-09-18T06:12:02.436Z,6.00
2018-09-18T06:14:30.395Z,6.87
2018-09-18T06:16:59.399Z,6.37
2018-09-18T06:19:27.311Z,6.30
2018-09-18T06:21:55.332Z,6.10
2018-09-18T06:24:23.300Z,6.53
2018-09-18T06:26:51.276Z,6.53
2018-09-18T06:29:19.247Z,6.83
2018-09-18T06:31:47.151Z,6.20
2018-09-18T06:34:15.190Z,6.10
2018-09-18T06:36:43.153Z,5.70
2018-09-18T06:39:11.656Z,6.27
2018-09-18T06:41:39.839Z,6.00
2018-09-18T06:44:07.776Z,6.10
2018-09-18T06:46:35.789Z,7.60
2018-09-18T06:49:03.789Z,6.50
2018-09-18T06:51:31.783Z,6.30
2018-09-18T06:53:59.750Z,6.30
2018-09-18T06:56:27.771Z,7.00
2018-09-18T06:58:55.766Z,6.03
2018-09-18T07:01:23.793Z,7.00
2018-09-18T07:03:51.888Z,6.33
2018-09-18T07:06:20.020Z,7.13
2018-09-18T07:08:47.980Z,7.33
2018-09-18T07:11:15.899Z,7.37
2018-09-18T07:13:43.819Z,8.27
2018-09-18T07:16:11.768Z,6.13
2018-09-18T07:18:39.863Z,7.40
2018-09-18T07:21:07.890Z,6.97
2018-09-18T07:23:35.907Z,6.77
2018-09-18T07:26:03.844Z,6.83
2018-09-18T07:28:31.839Z,6.70
2018-09-18T07:30:59.816Z,6.40
2018-09-18T07:33:27.787Z,7.13
2018-09-18T07:35:55.759Z,7.10
2018-09-18T07:38:23.659Z,6.40
2018-09-18T07:40:51.577Z,6.83
2018-09-18T07:43:19.688Z,6.67
2018-09-18T07:45:47.624Z,6.27
2018-09-18T07:48:16.521Z,7.10
2018-09-18T07:50:44.543Z,6.80
2018-09-18T07:53:12.464Z,6.20
2018-09-18T07:55:40.570Z,7.20
2018-09-18T07:58:08.509Z,6.60
2018-09-18T08:00:36.456Z,6.83
2018-09-18T08:03:04.448Z,6.80
2018-09-18T08:05:32.415Z,6.97
2018-09-18T08:08:00.384Z,6.70
2018-09-18T08:10:28.347Z,6.60
2018-09-18T08:12:56.335Z,6.93
2018-09-18T08:15:24.362Z,6.30
2018-09-18T08:17:52.363Z,6.80
2018-09-18T08:20:20.328Z,7.43
2018-09-18T08:22:48.258Z,7.03
2018-09-18T08:25:16.195Z,7.73
2018-09-18T08:27:44.163Z,6.50
2018-09-18T08:30:12.117Z,7.07
2018-09-18T08:32:40.132Z,6.30
2018-09-18T08:35:08.047Z,6.57
2018-09-18T08:37:36.020Z,7.10
2018-09-18T08:40:03.997Z,6.53
2018-09-18T08:42:32.211Z,6.73
2018-09-18T08:45:00.132Z,6.03
2018-09-18T08:47:28.116Z,6.47
2018-09-18T08:49:56.060Z,6.23
2018-09-18T08:52:23.991Z,6.47
2018-09-18T08:54:51.908Z,5.47
2018-09-18T08:57:19.889Z,6.30
2018-09-18T08:59:47.851Z,5.67
2018-09-18T09:02:15.786Z,6.37
2018-09-18T09:04:43.783Z,6.10
2018-09-18T09:07:11.758Z,6.17
2018-09-18T09:09:39.789Z,5.47
2018-09-18T09:12:07.727Z,5.23
2018-09-18T09:14:35.728Z,5.93
2018-09-18T09:17:04.964Z,5.93
2018-09-18T09:19:32.931Z,5.53
2018-09-18T09:22:00.995Z,6.17
2018-09-18T09:24:28.933Z,5.17
2018-09-18T09:26:57.001Z,5.30
2018-09-18T09:29:24.843Z,4.80
2018-09-18T09:31:52.819Z,5.33
2018-09-18T09:34:20.760Z,5.70
2018-09-18T09:36:48.810Z,5.40
2018-09-18T09:39:16.696Z,4.47
2018-09-18T09:41:44.604Z,4.60
2018-09-18T09:44:12.516Z,4.93
2018-09-18T09:46:40.501Z,4.57
2018-09-18T09:49:08.416Z,4.40
2018-09-18T09:51:36.410Z,5.30
2018-09-18T09:54:04.282Z,4.87
2018-09-18T09:56:32.257Z,4.20
2018-09-18T09:59:00.248Z,4.43
2018-09-18T10:02:35.572Z,4.63
2018-09-18T10:05:03.567Z,4.60
2018-09-18T10:07:31.567Z,4.70
2018-09-18T10:09:59.508Z,4.30
2018-09-18T10:12:27.497Z,4.70
2018-09-18T10:14:55.408Z,4.40
2018-09-18T10:17:23.759Z,4.20
2018-09-18T10:19:51.692Z,5.10
2018-09-18T10:22:19.674Z,3.77
2018-09-18T10:24:47.624Z,4.40
2018-09-18T10:27:15.578Z,4.07
2018-09-18T10:29:43.569Z,3.97
2018-09-18T10:32:11.536Z,4.30
2018-09-18T10:34:39.487Z,4.17
2018-09-18T10:37:07.483Z,3.70
2018-09-18T10:39:35.570Z,4.30
2018-09-18T10:42:03.624Z,4.47
2018-09-18T10:44:31.495Z,4.20
2018-09-18T10:46:59.456Z,4.30
2018-09-18T10:49:27.900Z,3.70
2018-09-18T10:51:56.040Z,4.77
2018-09-18T10:54:24.063Z,3.70
2018-09-18T10:56:51.964Z,5.07
2018-09-18T10:59:19.915Z,4.17
2018-09-18T11:01:47.903Z,3.70
2018-09-18T11:04:15.891Z,3.77
2018-09-18T11:06:43.834Z,4.17
2018-09-18T11:09:11.899Z,4.37
2018-09-18T11:11:40.808Z,3.90
2018-09-18T11:14:09.474Z,3.90
2018-09-18T11:16:37.017Z,4.27
2018-09-18T11:19:04.872Z,4.57
2018-09-18T11:21:32.988Z,4.00
2018-09-18T11:24:00.876Z,4.40
2018-09-18T11:26:28.892Z,3.97
2018-09-18T11:28:56.785Z,4.70
2018-09-18T11:31:24.763Z,3.67
2018-09-18T11:33:52.708Z,3.80
2018-09-18T11:36:20.776Z,3.50
2018-09-18T11:38:48.729Z,4.90
2018-09-18T11:41:16.744Z,4.20
2018-09-18T11:43:44.700Z,4.10
2018-09-18T11:46:12.716Z,4.50
2018-09-18T11:48:40.621Z,4.20
2018-09-18T11:51:08.666Z,4.37
2018-09-18T11:53:36.583Z,4.20
2018-09-18T11:56:04.487Z,3.77
2018-09-18T11:58:32.568Z,3.83
2018-09-18T12:01:00.375Z,3.97
2018-09-18T12:03:28.379Z,3.27
2018-09-18T12:05:56.296Z,3.67
2018-09-18T12:08:24.301Z,3.70
2018-09-18T12:10:52.211Z,3.90
2018-09-18T12:13:20.148Z,3.83
2018-09-18T12:15:49.135Z,4.03
2018-09-18T12:18:17.112Z,4.43
2018-09-18T12:20:45.413Z,4.37
2018-09-18T12:23:13.358Z,4.50
2018-09-18T12:25:41.482Z,4.43
2018-09-18T12:28:09.623Z,4.80
2018-09-18T12:30:37.539Z,4.10
2018-09-18T12:33:05.633Z,4.20
2018-09-18T12:35:33.832Z,4.70
2018-09-18T12:38:01.709Z,4.30
2018-09-18T12:40:29.617Z,4.57
2018-09-18T12:42:57.625Z,4.33
2018-09-18T12:45:25.592Z,4.80
2018-09-18T12:47:53.531Z,4.20
2018-09-18T12:50:21.687Z,4.70
2018-09-18T12:52:49.355Z,5.00
2018-09-18T12:55:17.334Z,4.27
2018-09-18T12:57:45.255Z,4.20
2018-09-18T13:00:13.221Z,4.40
2018-09-18T13:02:41.194Z,4.10
2018-09-18T13:05:09.099Z,4.83
2018-09-18T13:07:37.140Z,3.70
2018-09-18T13:10:05.109Z,4.53
2018-09-18T13:12:33.147Z,4.10
2018-09-18T13:15:01.073Z,4.63
2018-09-18T13:17:28.638Z,5.10
2018-09-18T13:19:56.559Z,3.80
2018-09-18T13:22:24.455Z,4.27
2018-09-18T13:24:52.456Z,4.33
2018-09-18T13:27:20.357Z,5.17
2018-09-18T13:29:48.336Z,4.60
2018-09-18T13:32:16.674Z,4.40
2018-09-18T13:34:44.584Z,4.53
2018-09-18T13:37:13.361Z,4.13
2018-09-18T13:39:41.280Z,4.83
2018-09-18T13:42:09.196Z,4.57
2018-09-18T13:44:37.167Z,3.97
2018-09-18T13:47:05.081Z,4.40
2018-09-18T13:49:33.013Z,4.03
2018-09-18T13:52:00.984Z,4.57
2018-09-18T13:54:28.940Z,4.00
2018-09-18T13:56:56.986Z,4.00
2018-09-18T13:59:24.900Z,3.90
2018-09-18T14:01:52.894Z,3.90
2018-09-18T14:04:20.747Z,4.80
2018-09-18T14:06:48.706Z,4.83
2018-09-18T14:09:16.686Z,3.93
2018-09-18T14:11:44.597Z,5.37
2018-09-18T14:14:12.672Z,4.33
2018-09-18T14:16:40.582Z,4.20
2018-09-18T14:19:08.872Z,4.87
2018-09-18T14:21:36.811Z,3.87
2018-09-18T14:24:04.792Z,4.00
2018-09-18T14:26:32.916Z,4.50
2018-09-18T14:29:00.673Z,3.70
2018-09-18T14:31:28.594Z,4.93
2018-09-18T14:33:56.572Z,4.10
2018-09-18T14:36:24.497Z,4.00
2018-09-18T14:38:52.526Z,4.03
2018-09-18T14:41:20.478Z,3.90
2018-09-18T14:43:48.401Z,4.27
2018-09-18T14:46:16.411Z,4.20
2018-09-18T14:48:44.564Z,4.07
2018-09-18T14:51:12.617Z,3.70
2018-09-18T14:53:40.440Z,3.40
2018-09-18T14:56:08.357Z,3.27
2018-09-18T14:58:36.275Z,3.43
2018-09-18T15:01:04.188Z,3.50
2018-09-18T15:03:32.107Z,3.73
2018-09-18T15:06:00.015Z,3.23
2018-09-18T15:08:27.928Z,3.80
2018-09-18T15:10:55.920Z,3.60
2018-09-18T15:13:23.863Z,3.70
2018-09-18T15:15:51.776Z,3.63
2018-09-18T15:18:19.740Z,4.10
2018-09-18T15:20:47.220Z,3.70
2018-09-18T15:23:15.250Z,4.70
2018-09-18T15:25:43.343Z,3.87
2018-09-18T15:28:11.454Z,4.67
2018-09-18T15:30:39.355Z,4.13
2018-09-18T15:33:07.336Z,4.70
2018-09-18T15:35:35.305Z,4.20
2018-09-18T15:38:03.252Z,4.43
2018-09-18T15:40:31.983Z,4.60
2018-09-18T15:43:00.091Z,4.40
2018-09-18T15:45:28.007Z,5.93
2018-09-18T15:47:55.963Z,4.23
2018-09-18T15:50:23.957Z,5.63
2018-09-18T15:52:51.896Z,5.37
2018-09-18T15:55:19.969Z,5.97
2018-09-18T15:57:47.878Z,4.73
2018-09-18T16:00:15.843Z,4.93
2018-09-18T16:02:43.809Z,5.10
2018-09-18T16:05:11.816Z,4.77
2018-09-18T16:07:39.850Z,5.07
2018-09-18T16:10:07.825Z,5.10
2018-09-18T16:12:35.719Z,6.27
2018-09-18T16:15:03.213Z,7.00
2018-09-18T16:17:31.144Z,5.47
2018-09-18T16:19:59.054Z,5.93
2018-09-18T16:22:27.065Z,5.80
2018-09-18T16:24:55.103Z,5.03
2018-09-18T16:27:23.069Z,4.83
2018-09-18T16:29:50.980Z,5.60
2018-09-18T16:32:18.911Z,5.00
2018-09-18T16:34:46.868Z,4.67
2018-09-18T16:37:14.806Z,5.10
2018-09-18T16:39:42.763Z,4.80
2018-09-18T16:42:10.705Z,5.37
2018-09-18T16:44:38.667Z,5.30
2018-09-18T16:47:06.612Z,4.67
2018-09-18T16:49:34.512Z,5.40
2018-09-18T16:52:02.465Z,5.20
2018-09-18T16:54:30.473Z,5.07
2018-09-18T16:56:58.329Z,5.27
2018-09-18T16:59:26.391Z,5.50
2018-09-18T17:01:54.344Z,4.47
2018-09-18T17:04:22.379Z,5.10
2018-09-18T17:06:50.391Z,3.93
2018-09-18T17:09:18.374Z,4.30
2018-09-18T17:11:46.309Z,3.37
2018-09-18T17:14:14.231Z,3.33
2018-09-18T17:16:41.783Z,3.90
2018-09-18T17:19:09.614Z,3.40
2018-09-18T17:21:37.621Z,2.80
2018-09-18T17:24:05.553Z,2.50
2018-09-18T17:26:33.519Z,2.53
2018-09-18T17:29:01.862Z,2.83
2018-09-18T17:31:29.651Z,2.60
2018-09-18T17:33:57.636Z,3.07
2018-09-18T17:36:25.573Z,2.43
2018-09-18T17:38:53.490Z,2.30
2018-09-18T17:41:21.452Z,1.90
2018-09-18T17:43:49.348Z,2.40
2018-09-18T17:46:17.303Z,3.37
2018-09-18T17:48:45.213Z,3.00
2018-09-18T17:51:13.247Z,3.17
2018-09-18T17:53:41.241Z,13.43
2018-09-18T17:56:09.153Z,4.80
2018-09-18T17:58:37.195Z,5.50
2018-09-18T18:01:05.132Z,3.10
2018-09-18T18:03:33.041Z,2.63
2018-09-18T18:06:00.991Z,2.93
2018-09-18T18:08:28.948Z,2.70
2018-09-18T18:10:56.949Z,2.60
2018-09-18T18:13:24.837Z,2.83
2018-09-18T18:15:52.598Z,2.90
2018-09-18T18:18:20.607Z,2.83
2018-09-18T18:20:48.637Z,2.70
2018-09-18T18:23:16.524Z,2.87
2018-09-18T18:25:44.460Z,2.93
2018-09-18T18:28:12.417Z,2.93
2018-09-18T18:30:40.325Z,3.13
2018-09-18T18:33:08.386Z,2.60
2018-09-18T18:35:36.362Z,3.30
2018-09-18T18:38:04.207Z,3.27
2018-09-18T18:40:31.709Z,3.17
2018-09-18T18:42:59.758Z,3.10
2018-09-18T18:45:27.699Z,2.90
2018-09-18T18:47:55.695Z,3.80
2018-09-18T18:50:23.627Z,3.07
2018-09-18T18:52:51.566Z,3.13
2018-09-18T18:55:19.489Z,3.40
2018-09-18T18:57:47.425Z,3.07
2018-09-18T19:00:15.368Z,3.20
2018-09-18T19:02:44.612Z,3.40
2018-09-18T19:05:12.909Z,2.70
2018-09-18T19:07:40.898Z,3.00
2018-09-18T19:10:08.866Z,3.03
2018-09-18T19:12:36.785Z,2.50
2018-09-18T19:15:04.241Z,2.60
2018-09-18T19:20:06.809Z,2.03
2018-09-18T19:22:34.805Z,1.90
2018-09-18T19:25:02.758Z,2.20
2018-09-18T19:27:30.765Z,2.03
2018-09-18T19:29:58.685Z,2.10
2018-09-18T19:32:27.012Z,2.50
2018-09-18T19:34:55.364Z,1.73
2018-09-18T19:37:23.293Z,1.73
2018-09-18T19:39:51.220Z,1.80
2018-09-18T19:42:19.185Z,1.57
2018-09-18T19:44:47.099Z,2.10
2018-09-18T19:47:15.038Z,2.00
2018-09-18T19:49:42.969Z,2.00
2018-09-18T19:52:11.609Z,2.20
2018-09-18T19:54:40.224Z,1.80
2018-09-18T19:57:08.144Z,2.00
2018-09-18T19:59:36.075Z,2.20
2018-09-18T20:02:03.996Z,1.90
2018-09-18T20:04:31.923Z,1.50
2018-09-18T20:06:59.863Z,1.60
2018-09-18T20:09:27.883Z,1.87
2018-09-18T20:11:55.777Z,2.07
2018-09-18T20:14:23.720Z,2.13
2018-09-18T20:16:51.211Z,1.90
2018-09-18T20:19:19.170Z,1.50
2018-09-18T20:21:47.091Z,1.57
2018-09-18T20:24:15.029Z,2.00
2018-09-18T20:26:42.953Z,2.00
2018-09-18T20:29:11.027Z,1.70
2018-09-18T20:31:38.940Z,1.60
2018-09-18T20:34:06.856Z,2.67
2018-09-18T20:36:34.780Z,2.17
2018-09-18T20:39:02.870Z,2.20
2018-09-18T20:41:30.792Z,2.43
2018-09-18T20:43:58.692Z,1.90
2018-09-18T20:46:26.611Z,2.03
2018-09-18T20:48:54.748Z,2.00
2018-09-18T20:51:22.671Z,2.00
2018-09-18T20:53:50.661Z,1.70
2018-09-18T20:56:18.591Z,3.17
2018-09-18T20:58:46.903Z,2.30
2018-09-18T21:01:21.145Z,2.23
2018-09-18T21:03:50.086Z,1.80
2018-09-18T21:06:18.009Z,2.20
2018-09-18T21:08:45.992Z,1.77
2018-09-18T21:11:13.910Z,2.47
2018-09-18T21:13:41.903Z,2.23
2018-09-18T21:16:09.446Z,2.10
2018-09-18T21:18:37.413Z,2.00
2018-09-18T21:21:05.458Z,2.10
2018-09-18T21:23:33.488Z,2.33
2018-09-18T21:26:10.549Z,2.07
2018-09-18T21:28:38.531Z,2.50
2018-09-18T21:31:06.583Z,2.27
2018-09-18T21:33:34.573Z,2.60
2018-09-18T21:36:02.521Z,2.27
2018-09-18T21:38:30.940Z,2.50
2018-09-18T21:40:58.863Z,2.35
2018-09-18T21:43:27.631Z,2.53
2018-09-18T21:45:55.628Z,2.40
2018-09-18T21:48:23.595Z,3.23
2018-09-18T21:50:51.605Z,2.07
2018-09-18T21:53:19.520Z,2.43
2018-09-18T21:55:47.681Z,2.30
2018-09-18T21:58:15.696Z,2.30
2018-09-18T22:00:43.779Z,2.43
2018-09-18T22:03:11.877Z,2.67
2018-09-18T22:05:39.845Z,2.50
2018-09-18T22:08:07.784Z,2.20
2018-09-18T22:10:35.748Z,2.53
2018-09-18T22:13:03.734Z,2.30
2018-09-18T22:15:32.309Z,2.83
2018-09-18T22:18:00.297Z,2.70
2018-09-18T22:20:28.231Z,2.47
2018-09-18T22:22:56.203Z,2.50
2018-09-18T22:25:24.491Z,3.10
2018-09-18T22:27:52.978Z,2.93
2018-09-18T22:30:20.895Z,3.10
2018-09-18T22:32:48.795Z,2.93
2018-09-18T22:35:16.787Z,2.73
2018-09-18T22:37:44.780Z,3.03
2018-09-18T22:40:12.702Z,3.60
2018-09-18T22:42:40.675Z,3.30
